Time;durP1;ratioP1;P1;durP2;ratioP2;P2;SDS_P1;SDS_P2;PMS_P1;PMS_P2;Temp;Humidity;BMP_temperature;BMP_pressure;BME280_temperature;BME280_humidity;BME280_pressure;Samples;Min_cycle;Max_cycle;Signal;HPM_P1;HPM_P2
2022/11/03 00:00:32;;;;;;;7.10;3.37;;;;;;;18.22;40.19;99816.97;5052383;28;20195;-64
2022/11/03 00:02:59;;;;;;;9.13;3.30;;;;;;;18.27;39.93;99815.22;5052386;28;20624;-64
2022/11/03 00:08:10;;;;;;;11.67;3.97;;;;;;;18.31;39.69;99820.94;5052108;28;20187;-64
2022/11/03 00:10:38;;;;;;;8.20;3.93;;;;;;;18.29;39.75;99817.69;5051635;28;20248;-64
2022/11/03 00:13:05;;;;;;;8.83;3.33;;;;;;;18.42;39.47;99822.81;5060793;28;20231;-64
2022/11/03 00:15:32;;;;;;;4.63;3.13;;;;;;;18.45;39.45;99825.00;5072887;28;20196;-64
2022/11/03 00:17:58;;;;;;;7.00;2.93;;;;;;;18.46;39.31;99819.38;5055976;28;20247;-64
2022/11/03 00:20:25;;;;;;;8.77;3.23;;;;;;;18.47;39.31;99817.53;5056210;28;20227;-64
2022/11/03 00:22:52;;;;;;;4.23;3.83;;;;;;;18.49;39.70;99812.72;5056138;28;20202;-64
2022/11/03 00:25:18;;;;;;;8.33;4.20;;;;;;;18.51;39.53;99816.00;5055507;28;20196;-64
2022/11/03 00:27:46;;;;;;;6.60;3.97;;;;;;;18.54;39.38;99824.41;5055497;28;20638;-64
2022/11/03 00:30:13;;;;;;;5.50;2.93;;;;;;;18.49;39.37;99823.47;5055616;28;20190;-64
2022/11/03 00:32:40;;;;;;;9.60;3.60;;;;;;;18.59;39.31;99823.69;5055924;28;20280;-63
2022/11/03 00:35:07;;;;;;;9.87;4.20;;;;;;;18.60;38.98;99830.69;5055666;28;20199;-64
2022/11/03 00:37:34;;;;;;;3.90;3.20;;;;;;;18.71;38.68;99833.34;5055378;28;20673;-63
2022/11/03 00:40:01;;;;;;;7.17;3.10;;;;;;;18.78;38.56;99827.84;5055182;28;20193;-64
2022/11/03 00:42:27;;;;;;;6.67;3.20;;;;;;;18.88;38.32;99828.00;5055625;28;20231;-64
2022/11/03 00:44:55;;;;;;;7.83;3.50;;;;;;;18.88;38.21;99828.00;5055136;28;20199;-64
2022/11/03 00:47:22;;;;;;;3.20;2.90;;;;;;;18.92;38.16;99826.47;5055748;28;20200;-64
2022/11/03 00:49:49;;;;;;;3.80;3.00;;;;;;;18.93;38.13;99826.25;5055377;28;20198;-64
2022/11/03 00:52:15;;;;;;;5.37;3.30;;;;;;;18.94;37.86;99830.56;5054949;28;20220;-63
2022/11/03 00:54:42;;;;;;;5.77;3.77;;;;;;;19.03;37.67;99822.91;5055112;28;20707;-63
2022/11/03 00:57:09;;;;;;;6.07;3.10;;;;;;;19.08;37.46;99813.03;5055591;28;20192;-64
2022/11/03 00:59:35;;;;;;;7.40;3.00;;;;;;;19.10;37.46;99815.47;5055447;28;20192;-64
2022/11/03 01:02:03;;;;;;;5.60;2.70;;;;;;;19.10;37.63;99810.09;5055694;28;20216;-64
2022/11/03 01:07:14;;;;;;;9.30;3.10;;;;;;;18.98;37.80;99809.34;5055010;28;20651;-64
2022/11/03 01:09:43;;;;;;;12.03;3.70;;;;;;;18.98;37.90;99809.34;5055345;28;20264;-64
2022/11/03 01:12:11;;;;;;;8.70;3.07;;;;;;;19.03;37.87;99810.25;5055371;28;20361;-64
2022/11/03 01:14:40;;;;;;;5.30;3.07;;;;;;;18.93;37.94;99814.63;5074759;28;20201;-64
2022/11/03 01:17:11;;;;;;;7.00;3.43;;;;;;;18.89;37.99;99808.94;5058916;28;20196;-64
2022/11/03 01:19:38;;;;;;;9.70;3.17;;;;;;;18.89;37.73;99810.78;5054736;28;20200;-64
2022/11/03 01:22:05;;;;;;;5.63;3.80;;;;;;;18.93;37.82;99812.78;5055353;28;20199;-63
2022/11/03 01:24:31;;;;;;;7.47;2.97;;;;;;;19.06;37.32;99811.63;5054201;28;20199;-63
2022/11/03 01:26:58;;;;;;;6.57;3.43;;;;;;;19.05;37.69;99810.84;5054805;28;20196;-63
2022/11/03 01:29:25;;;;;;;6.23;3.13;;;;;;;18.93;37.89;99817.34;5054190;28;20195;-63
2022/11/03 01:31:51;;;;;;;5.20;3.13;;;;;;;18.94;37.96;99816.25;5054911;28;20223;-64
2022/11/03 01:34:21;;;;;;;6.50;2.53;;;;;;;18.98;37.92;99812.03;5054854;28;20562;-63
2022/11/03 01:36:48;;;;;;;6.10;3.53;;;;;;;18.83;38.13;99809.88;5054530;28;20198;-64
2022/11/03 01:39:17;;;;;;;8.77;3.10;;;;;;;18.81;38.44;99816.56;5054424;28;20653;-64
2022/11/03 01:41:46;;;;;;;8.27;2.90;;;;;;;18.96;38.20;99820.38;5054994;28;20254;-64
2022/11/03 01:44:29;;;;;;;5.40;3.03;;;;;;;18.97;37.87;99818.47;5054438;28;20197;-63
2022/11/03 01:47:02;;;;;;;5.27;3.00;;;;;;;19.08;37.72;99823.78;5054995;28;20313;-63
2022/11/03 01:49:36;;;;;;;3.50;2.80;;;;;;;19.11;37.35;99819.81;5055097;28;20217;-63
2022/11/03 01:52:08;;;;;;;7.37;3.30;;;;;;;19.05;37.40;99826.16;5053937;28;20754;-64
2022/11/03 01:54:38;;;;;;;10.83;3.17;;;;;;;18.89;37.47;99826.94;5053902;28;20653;-63
2022/11/03 01:57:10;;;;;;;4.83;3.00;;;;;;;18.75;37.93;99826.41;5054161;28;20203;-63
2022/11/03 01:59:37;;;;;;;7.03;2.87;;;;;;;18.69;38.35;99822.00;5053819;28;20642;-64
2022/11/03 02:02:04;;;;;;;6.50;3.53;;;;;;;18.61;38.25;99818.88;5054126;28;20296;-63
2022/11/03 02:04:34;;;;;;;6.77;3.07;;;;;;;18.56;38.28;99826.84;5053666;28;20660;-65
2022/11/03 02:07:11;;;;;;;8.67;2.90;;;;;;;18.58;38.26;99822.06;5052854;28;20198;-63
2022/11/03 02:09:38;;;;;;;5.27;3.03;;;;;;;18.63;38.43;99822.16;5054477;28;20192;-63
2022/11/03 02:12:08;;;;;;;6.57;2.63;;;;;;;18.63;38.43;99824.84;5054123;28;20322;-63
2022/11/03 02:14:39;;;;;;;10.03;3.23;;;;;;;18.53;38.53;99808.50;5073334;28;20240;-65
2022/11/03 02:17:09;;;;;;;6.50;3.27;;;;;;;18.59;38.33;99823.69;5057944;28;20191;-64
2022/11/03 02:19:41;;;;;;;6.60;3.13;;;;;;;18.62;38.25;99824.00;5053838;28;20638;-64
2022/11/03 02:22:27;;;;;;;8.67;2.80;;;;;;;18.67;38.16;99823.31;5053504;28;20207;-64
2022/11/03 02:25:02;;;;;;;12.00;2.97;;;;;;;18.75;37.93;99814.84;5053343;28;20674;-65
2022/11/03 02:27:30;;;;;;;6.70;3.40;;;;;;;18.64;38.10;99824.59;5054784;28;20192;-64
2022/11/03 02:29:57;;;;;;;7.03;2.83;;;;;;;18.63;38.63;99824.84;5053532;28;20534;-65
2022/11/03 02:32:28;;;;;;;4.90;3.03;;;;;;;18.66;38.17;99821.69;5054379;28;20230;-64
2022/11/03 02:35:05;;;;;;;4.80;2.50;;;;;;;18.58;38.17;99816.69;5052287;28;20239;-64
2022/11/03 02:37:35;;;;;;;6.83;2.73;;;;;;;18.58;38.05;99824.75;5054294;28;20252;-64
2022/11/03 02:40:06;;;;;;;3.63;2.43;;;;;;;18.59;38.13;99831.75;5053442;28;20605;-62
2022/11/03 02:42:37;;;;;;;9.73;3.10;;;;;;;18.58;38.09;99830.13;5053115;28;20196;-63
2022/11/03 02:45:09;;;;;;;9.53;3.10;;;;;;;18.53;38.19;99830.00;5053739;28;20187;-65
2022/11/03 02:47:38;;;;;;;10.03;3.30;;;;;;;18.64;37.53;99832.69;5054667;28;20190;-63
2022/11/03 02:50:09;;;;;;;8.57;2.97;;;;;;;18.66;37.58;99835.13;5052803;28;20245;-63
2022/11/03 02:52:38;;;;;;;7.57;3.17;;;;;;;18.70;37.40;99831.72;5053418;28;20230;-63
2022/11/03 02:55:12;;;;;;;5.53;3.00;;;;;;;18.76;37.28;99830.75;5052656;28;20193;-63
2022/11/03 02:57:47;;;;;;;3.83;3.00;;;;;;;18.85;36.96;99828.50;5053076;28;20237;-63
2022/11/03 03:00:17;;;;;;;4.97;2.73;;;;;;;18.93;37.03;99841.56;5052622;28;20613;-64
2022/11/03 03:02:53;;;;;;;5.63;2.97;;;;;;;18.85;37.10;99834.69;5052591;28;20285;-64
2022/11/03 03:05:25;;;;;;;5.23;2.93;;;;;;;18.87;37.09;99837.94;5052869;28;20189;-63
2022/11/03 03:07:57;;;;;;;4.93;3.53;;;;;;;18.89;36.95;99824.25;5053154;28;20239;-65
2022/11/03 03:10:26;;;;;;;13.53;3.23;;;;;;;18.89;36.96;99829.63;5053678;28;20661;-62
2022/11/03 03:12:57;;;;;;;7.10;2.80;;;;;;;18.81;37.20;99827.34;5057743;28;20225;-62
2022/11/03 03:15:33;;;;;;;9.97;3.07;;;;;;;18.79;37.47;99830.25;5071112;28;20186;-62
2022/11/03 03:18:10;;;;;;;8.13;3.00;;;;;;;18.80;37.25;99839.16;5052733;28;20182;-63
2022/11/03 03:20:41;;;;;;;6.30;2.73;;;;;;;18.75;37.33;99828.31;5052590;28;20184;-63
2022/11/03 03:23:16;;;;;;;4.17;3.00;;;;;;;18.70;37.45;99838.97;5053443;28;20202;-62
2022/11/03 03:25:48;;;;;;;9.67;3.73;;;;;;;18.74;37.21;99837.44;5052974;28;20217;-63
2022/11/03 03:28:22;;;;;;;7.20;2.83;;;;;;;18.74;37.21;99838.25;5052534;28;20238;-63
2022/11/03 03:30:51;;;;;;;6.43;3.10;;;;;;;18.75;37.31;99836.38;5052442;28;20190;-63
2022/11/03 03:33:19;;;;;;;6.50;3.00;;;;;;;18.72;37.39;99842.25;5052674;28;20224;-62
2022/11/03 03:35:49;;;;;;;6.20;2.90;;;;;;;18.73;37.31;99846.56;5051921;28;20253;-62
2022/11/03 03:38:21;;;;;;;11.00;3.97;;;;;;;18.66;37.51;99841.31;5052310;28;20261;-63
2022/11/03 03:40:51;;;;;;;9.20;3.33;;;;;;;18.66;37.44;99843.22;5052420;28;20191;-63
2022/11/03 03:43:23;;;;;;;8.77;3.07;;;;;;;18.66;37.44;99841.31;5051979;28;20739;-63
2022/11/03 03:45:52;;;;;;;11.67;3.53;;;;;;;18.66;37.35;99840.53;5051840;28;20232;-62
2022/11/03 03:48:19;;;;;;;7.80;3.50;;;;;;;18.73;37.37;99835.78;5051808;28;20190;-62
2022/11/03 03:50:49;;;;;;;17.10;4.97;;;;;;;18.75;37.26;99844.47;5052311;28;20199;-63
2022/11/03 03:53:17;;;;;;;10.27;3.50;;;;;;;18.87;36.89;99842.53;5051814;28;20721;-64
2022/11/03 03:55:47;;;;;;;5.10;2.93;;;;;;;18.83;36.98;99838.69;5052002;28;20205;-64
2022/11/03 03:58:15;;;;;;;7.17;2.57;;;;;;;18.79;36.84;99829.47;5051751;28;20578;-63
2022/11/03 04:00:44;;;;;;;12.53;4.20;;;;;;;18.80;36.99;99833.78;5051624;28;20207;-63
2022/11/03 04:03:16;;;;;;;6.13;3.17;;;;;;;18.81;36.91;99838.94;5051993;28;20643;-63
2022/11/03 04:05:43;;;;;;;2.90;2.70;;;;;;;18.88;36.86;99844.16;5052144;28;20189;-63
2022/11/03 04:08:10;;;;;;;8.17;3.10;;;;;;;18.89;36.82;99841.25;5052121;28;20609;-62
2022/11/03 04:10:37;;;;;;;8.60;3.07;;;;;;;18.92;36.80;99845.31;5051604;28;20196;-62
2022/11/03 04:24:11;;;;;;;8.20;3.27;;;;;;;18.84;36.77;99845.72;5052140;28;20561;-62
2022/11/03 04:26:38;;;;;;;5.37;3.13;;;;;;;18.79;36.94;99851.00;5052044;28;20192;-62
2022/11/03 04:29:07;;;;;;;12.70;2.93;;;;;;;18.72;36.99;99847.63;5057264;28;20734;-63
2022/11/03 04:31:36;;;;;;;4.70;3.17;;;;;;;18.79;36.88;99845.63;5071719;28;20193;-62
2022/11/03 04:34:04;;;;;;;5.13;2.67;;;;;;;18.88;36.78;99841.47;5071371;28;20709;-62
2022/11/03 04:36:31;;;;;;;6.17;3.20;;;;;;;18.95;36.61;99844.84;5071561;28;20645;-62
2022/11/03 04:38:58;;;;;;;3.70;3.40;;;;;;;19.05;36.49;99848.53;5071731;28;20199;-63
2022/11/03 04:41:28;;;;;;;7.93;3.27;;;;;;;19.11;36.39;99852.94;5071746;28;20198;-62
2022/11/03 04:43:56;;;;;;;5.27;3.43;;;;;;;19.17;36.20;99848.47;5071349;28;20559;-63
2022/11/03 04:46:26;;;;;;;17.93;3.97;;;;;;;19.10;36.33;99855.88;5060050;28;20624;-64
2022/11/03 04:48:55;;;;;;;5.13;2.90;;;;;;;19.08;36.71;99860.69;5051236;28;20193;-63
2022/11/03 04:51:24;;;;;;;9.00;3.03;;;;;;;18.99;36.74;99851.38;5051559;28;20196;-63
2022/11/03 04:53:54;;;;;;;5.60;2.70;;;;;;;18.96;36.89;99857.25;5051763;28;20218;-63
2022/11/03 04:56:24;;;;;;;9.97;3.57;;;;;;;18.75;37.39;99855.22;5051665;28;20286;-64
2022/11/03 04:58:52;;;;;;;10.10;3.27;;;;;;;18.77;37.30;99853.09;5052313;28;20678;-63
2022/11/03 05:01:21;;;;;;;9.50;2.63;;;;;;;18.88;37.48;99860.31;5055195;28;20198;-63
2022/11/03 05:03:50;;;;;;;19.40;3.33;;;;;;;18.94;37.05;99860.16;5054654;28;20242;-64
2022/11/03 05:06:20;;;;;;;8.20;3.10;;;;;;;18.98;37.66;99865.88;5055137;28;20198;-66
2022/11/03 05:08:49;;;;;;;9.47;3.43;;;;;;;19.13;36.73;99871.56;5055080;28;20185;-66
2022/11/03 05:11:21;;;;;;;10.73;3.67;;;;;;;19.19;36.51;99867.91;5055119;28;20189;-66
2022/11/03 05:13:49;;;;;;;14.50;3.53;;;;;;;19.16;37.05;99863.00;5064128;28;20296;-71
2022/11/03 05:16:17;;;;;;;12.03;3.47;;;;;;;19.10;36.99;99867.47;5059740;28;20254;-70
2022/11/03 05:18:48;;;;;;;12.57;3.43;;;;;;;19.14;37.18;99871.31;5066203;28;20272;-71
2022/11/03 05:21:17;;;;;;;7.97;3.30;;;;;;;19.31;37.88;99874.06;5057174;28;20451;-63
2022/11/03 05:23:50;;;;;;;14.00;3.70;;;;;;;19.45;36.99;99878.09;5054814;28;20737;-71
2022/11/03 05:26:20;;;;;;;9.33;2.90;;;;;;;19.42;36.52;99886.66;5067879;28;20180;-69
2022/11/03 05:28:50;;;;;;;18.33;3.47;;;;;;;19.45;37.35;99884.28;5065963;28;20615;-69
2022/11/03 05:31:23;;;;;;;15.50;3.60;;;;;;;19.40;36.48;99881.50;5060307;28;20246;-68
2022/11/03 05:33:52;;;;;;;11.10;3.30;;;;;;;19.48;37.45;99883.00;5051946;28;20266;-69
2022/11/03 05:36:21;;;;;;;14.60;3.90;;;;;;;19.70;35.96;99894.69;5052292;28;20199;-68
2022/11/03 05:38:50;;;;;;;31.97;4.30;;;;;;;19.88;36.26;99899.81;5053015;28;20286;-68
2022/11/03 05:41:22;;;;;;;24.30;3.93;;;;;;;19.97;36.42;99892.97;5054237;28;20196;-71
2022/11/03 05:44:00;;;;;;;20.23;3.60;;;;;;;20.00;35.53;99895.13;5053963;28;20230;-69
2022/11/03 05:46:31;;;;;;;11.60;3.87;;;;;;;20.06;35.72;99904.97;5054533;28;20249;-72
2022/11/03 05:49:02;;;;;;;14.93;3.20;;;;;;;20.21;38.39;99902.50;5057800;28;20254;-71
2022/11/03 05:51:34;;;;;;;14.40;4.07;;;;;;;20.32;35.43;99912.38;5074987;28;20181;-71
2022/11/03 05:54:04;;;;;;;50.23;7.37;;;;;;;20.44;34.85;99915.78;5073627;28;20272;-71
2022/11/03 05:56:33;;;;;;;18.57;4.13;;;;;;;20.54;34.78;99926.69;5073180;28;20191;-70
2022/11/03 05:59:01;;;;;;;23.13;3.43;;;;;;;20.42;34.95;99934.13;5073778;28;20188;-69
2022/11/03 06:01:30;;;;;;;7.97;2.47;;;;;;;20.40;35.11;99925.44;5073388;28;20644;-70
2022/11/03 06:03:59;;;;;;;8.63;3.30;;;;;;;20.66;34.59;99930.09;5073444;28;20663;-69
2022/11/03 06:06:29;;;;;;;20.97;3.30;;;;;;;20.91;35.06;99941.28;5073565;28;20198;-67
2022/11/03 06:08:57;;;;;;;10.47;2.93;;;;;;;21.22;34.21;99937.84;5074148;28;20192;-67
2022/11/03 06:11:31;;;;;;;7.90;3.47;;;;;;;21.67;37.57;99942.88;5073173;28;20343;-69
2022/11/03 06:13:59;;;;;;;13.33;3.60;;;;;;;22.04;33.01;99947.28;5059247;28;20254;-67
2022/11/03 06:16:36;;;;;;;23.97;4.40;;;;;;;22.19;33.06;99952.81;5059751;28;20201;-71
2022/11/03 06:19:18;;;;;;;11.17;3.37;;;;;;;22.40;35.12;99946.44;5055714;28;20236;-71
2022/11/03 06:21:46;;;;;;;19.90;3.50;;;;;;;22.66;34.90;99950.16;5053823;28;20273;-72
2022/11/03 06:24:14;;;;;;;13.47;3.53;;;;;;;22.96;35.24;99964.66;5053032;28;20684;-70
2022/11/03 06:26:43;;;;;;;12.40;3.60;;;;;;;23.39;31.40;99974.28;5053104;28;20731;-70
2022/11/03 06:29:15;;;;;;;16.30;4.33;;;;;;;23.64;30.28;99980.59;5053009;28;20723;-70
2022/11/03 06:31:44;;;;;;;14.87;3.63;;;;;;;23.82;30.45;99985.53;5053605;28;20624;-71
2022/11/03 06:34:41;;;;;;;12.53;3.70;;;;;;;24.03;31.46;99992.63;5057685;28;20240;-69
2022/11/03 06:37:18;;;;;;;17.27;4.20;;;;;;;24.29;29.29;100006.97;5073639;28;20185;-68
2022/11/03 06:39:46;;;;;;;33.50;5.53;;;;;;;24.29;29.93;100005.09;5065665;28;20211;-67
2022/11/03 06:42:15;;;;;;;17.00;4.07;;;;;;;24.58;30.41;100002.59;5052842;28;20235;-70
2022/11/03 06:44:45;;;;;;;15.03;3.97;;;;;;;24.92;30.36;100009.09;5064067;28;20203;-71
2022/11/03 06:47:22;;;;;;;13.17;4.57;;;;;;;25.28;29.10;100015.22;5053499;28;20264;-70
2022/11/03 06:49:50;;;;;;;11.20;4.93;;;;;;;25.57;28.13;100013.44;5052736;28;20189;-67
2022/11/03 06:52:26;;;;;;;21.60;6.00;;;;;;;25.67;29.59;100018.81;5053109;28;20189;-71
2022/11/03 06:54:59;;;;;;;17.43;8.87;;;;;;;25.80;27.38;100020.94;5050029;28;20216;-67
2022/11/03 06:57:30;;;;;;;24.87;8.87;;;;;;;26.01;28.22;100019.72;5069298;28;20189;-72
2022/11/03 06:59:57;;;;;;;21.20;7.83;;;;;;;25.57;27.98;100030.59;5052535;28;20188;-68
2022/11/03 07:02:47;;;;;;;19.83;6.37;;;;;;;25.55;29.34;100026.53;5053574;28;20200;-67
2022/11/03 07:05:22;;;;;;;8.30;5.73;;;;;;;25.24;28.58;100033.16;5052499;28;20250;-67
2022/11/03 07:07:49;;;;;;;13.30;5.40;;;;;;;25.55;29.10;100038.19;5052849;28;20192;-68
2022/11/03 07:10:17;;;;;;;10.50;5.37;;;;;;;25.86;29.11;100038.84;5052115;28;20188;-67
2022/11/03 07:12:45;;;;;;;10.83;5.53;;;;;;;26.15;29.33;100028.84;5056657;28;20281;-66
2022/11/03 07:15:22;;;;;;;21.00;5.67;;;;;;;26.37;28.46;100040.13;5072503;28;20192;-67
2022/11/03 07:17:49;;;;;;;17.67;6.13;;;;;;;26.40;28.07;100055.88;5057559;28;20267;-67
2022/11/03 07:20:17;;;;;;;13.73;5.57;;;;;;;26.44;27.39;100043.31;5072328;28;20219;-67
2022/11/03 07:22:46;;;;;;;14.67;5.63;;;;;;;26.51;28.75;100052.81;5071934;28;20188;-67
2022/11/03 07:25:17;;;;;;;18.00;5.67;;;;;;;26.59;27.68;100043.22;5071936;28;20618;-68
2022/11/03 07:27:48;;;;;;;8.87;5.43;;;;;;;25.91;28.76;100044.25;5065829;28;20609;-68
2022/11/03 07:30:19;;;;;;;15.27;6.37;;;;;;;26.24;29.63;100021.69;5051766;28;20192;-68
2022/11/03 07:32:47;;;;;;;12.93;5.30;;;;;;;26.22;27.43;100048.41;5052543;28;20188;-70
2022/11/03 07:35:34;;;;;;;13.93;5.87;;;;;;;26.25;28.51;100053.31;5052563;28;20192;-68
2022/11/03 07:38:03;;;;;;;11.80;5.60;;;;;;;26.53;29.21;100045.13;5052655;28;20246;-68
2022/11/03 07:40:33;;;;;;;12.87;5.47;;;;;;;26.69;28.85;100060.28;5051500;28;20656;-67
2022/11/03 07:43:11;;;;;;;8.80;5.37;;;;;;;26.43;26.45;100056.16;5052328;28;20268;-69
2022/11/03 07:45:40;;;;;;;12.90;5.47;;;;;;;26.07;27.57;100045.78;5052163;28;20189;-68
2022/11/03 07:48:26;;;;;;;13.80;5.70;;;;;;;25.86;26.93;100050.56;5051775;28;20189;-66
2022/11/03 07:50:55;;;;;;;11.80;5.27;;;;;;;25.73;28.59;100034.03;5051978;28;20226;-70
2022/11/03 07:53:30;;;;;;;10.47;5.40;;;;;;;25.62;27.80;100043.34;5051797;28;20274;-69
2022/11/03 07:55:57;;;;;;;10.03;4.80;;;;;;;25.49;29.44;100043.94;5059387;28;20199;-71
2022/11/03 07:58:34;;;;;;;8.10;4.70;;;;;;;26.00;28.03;100042.59;5062881;28;20192;-71
2022/11/03 08:01:02;;;;;;;11.47;5.17;;;;;;;26.26;27.43;100024.97;5051845;28;20246;-70
2022/11/03 08:03:42;;;;;;;17.63;5.90;;;;;;;26.39;26.80;100036.00;5070753;28;20628;-69
2022/11/03 08:06:09;;;;;;;9.03;5.57;;;;;;;26.22;28.30;100032.06;5072598;28;20317;-74
2022/11/03 08:08:35;;;;;;;24.20;5.73;;;;;;;26.33;27.48;100026.25;5071279;28;20737;-70
2022/11/03 08:11:02;;;;;;;10.83;5.47;;;;;;;26.24;27.63;100025.25;5071538;28;20191;-71
2022/11/03 08:13:31;;;;;;;10.30;5.80;;;;;;;25.96;28.79;100036.09;5061553;28;20204;-70
2022/11/03 08:15:58;;;;;;;15.60;6.43;;;;;;;25.67;28.31;100018.81;5058135;28;20242;-68
2022/11/03 08:18:25;;;;;;;11.37;6.30;;;;;;;26.02;29.03;100034.94;5071492;28;20253;-67
2022/11/03 08:20:51;;;;;;;14.57;6.37;;;;;;;25.50;28.74;100023.81;5071574;28;20188;-69
2022/11/03 08:23:18;;;;;;;13.43;6.77;;;;;;;25.16;29.34;100009.25;5071311;28;20188;-69
2022/11/03 08:25:45;;;;;;;11.07;6.17;;;;;;;25.33;30.15;100024.19;5071271;28;20541;-69
2022/11/03 08:28:12;;;;;;;11.73;6.27;;;;;;;25.86;28.13;100028.78;5062711;28;20196;-70
2022/11/03 08:30:40;;;;;;;13.37;5.80;;;;;;;26.32;29.07;100027.34;5051244;28;20569;-69
2022/11/03 08:33:07;;;;;;;8.50;5.80;;;;;;;26.73;28.11;100022.34;5050846;28;20657;-68
2022/11/03 08:35:33;;;;;;;15.93;5.77;;;;;;;26.86;27.05;100033.38;5053692;28;20201;-69
2022/11/03 08:38:00;;;;;;;9.07;5.63;;;;;;;27.05;27.70;100030.72;5059129;28;20203;-69
2022/11/03 08:40:27;;;;;;;13.77;5.87;;;;;;;27.35;27.71;100031.19;5073605;28;20684;-68
2022/11/03 08:42:53;;;;;;;11.57;5.77;;;;;;;27.12;26.50;100034.72;5073897;28;20253;-66
2022/11/03 08:45:20;;;;;;;13.87;6.33;;;;;;;27.28;26.35;100035.41;5073132;28;20207;-68
2022/11/03 08:47:48;;;;;;;13.83;6.03;;;;;;;27.43;27.53;100027.00;5072589;28;20245;-67
2022/11/03 08:50:15;;;;;;;7.93;5.07;;;;;;;27.43;27.03;100029.72;5075181;28;20245;-67
2022/11/03 08:52:42;;;;;;;9.87;5.87;;;;;;;27.69;28.12;100022.81;5075828;28;20192;-67
2022/11/03 08:55:09;;;;;;;7.87;5.37;;;;;;;27.60;26.71;100032.78;5060699;28;20270;-68
2022/11/03 08:57:36;;;;;;;9.67;5.33;;;;;;;27.57;25.47;100030.63;5054946;28;20681;-67
2022/11/03 09:00:04;;;;;;;11.57;5.20;;;;;;;27.58;26.11;100021.34;5055129;28;20197;-68
2022/11/03 09:02:31;;;;;;;14.20;6.67;;;;;;;27.72;25.96;100024.97;5066064;28;20253;-67
2022/11/03 09:04:59;;;;;;;9.53;5.87;;;;;;;27.79;26.22;100023.50;5074718;28;20198;-74
2022/11/03 09:07:26;;;;;;;11.43;6.20;;;;;;;27.71;25.96;100013.22;5075343;28;20265;-70
2022/11/03 09:09:53;;;;;;;9.47;5.90;;;;;;;27.87;25.58;100028.31;5074700;28;20192;-70
2022/11/03 09:12:20;;;;;;;7.03;5.57;;;;;;;27.86;26.45;100026.69;5073895;28;20224;-72
2022/11/03 09:14:47;;;;;;;9.03;6.17;;;;;;;27.30;25.97;100022.25;5054748;28;20220;-70
2022/11/03 09:17:13;;;;;;;15.37;6.20;;;;;;;26.65;27.46;100021.06;5071386;28;20195;-71
2022/11/03 09:19:40;;;;;;;12.87;5.87;;;;;;;26.98;27.25;100014.72;5074916;28;20241;-73
2022/11/03 09:22:08;;;;;;;12.07;6.17;;;;;;;27.27;27.02;100018.19;5071067;28;20689;-72
2022/11/03 09:24:35;;;;;;;15.10;6.10;;;;;;;27.27;25.90;100012.75;5074699;28;20234;-73
2022/11/03 09:27:01;;;;;;;10.73;6.87;;;;;;;26.89;26.45;99999.28;5074215;28;20195;-68
2022/11/03 09:29:28;;;;;;;10.77;5.80;;;;;;;27.00;29.61;99998.06;5065299;28;20193;-70
2022/11/03 09:31:55;;;;;;;10.13;6.60;;;;;;;27.04;29.00;99997.19;5054286;28;20664;-71
2022/11/03 09:34:22;;;;;;;18.80;7.03;;;;;;;26.45;27.55;99995.91;5054174;28;20216;-70
2022/11/03 09:36:48;;;;;;;15.30;6.10;;;;;;;26.71;29.73;99987.19;5054051;28;20726;-69
2022/11/03 09:39:16;;;;;;;11.83;6.70;;;;;;;26.97;28.39;99985.00;5054445;28;20613;-72
2022/11/03 09:41:43;;;;;;;8.03;6.63;;;;;;;27.01;26.64;99988.75;5054079;28;20204;-70
2022/11/03 09:44:11;;;;;;;12.70;7.30;;;;;;;26.92;27.34;99990.50;5053715;28;20254;-70
2022/11/03 09:46:38;;;;;;;11.20;7.27;;;;;;;26.96;27.08;99988.84;5053919;28;20196;-70
2022/11/03 09:49:05;;;;;;;15.63;6.63;;;;;;;27.00;27.84;99985.25;5054377;28;20192;-70
2022/11/03 09:51:34;;;;;;;10.80;6.00;;;;;;;27.05;26.42;99987.09;5053911;28;20254;-69
2022/11/03 09:54:04;;;;;;;8.47;6.27;;;;;;;26.68;27.14;99986.97;5054016;28;20274;-72
2022/11/03 09:56:36;;;;;;;15.80;6.30;;;;;;;26.95;27.78;99970.84;5053596;28;20742;-69
2022/11/03 09:59:13;;;;;;;13.23;6.03;;;;;;;26.96;28.19;99972.47;5053826;28;20653;-68
2022/11/03 10:01:40;;;;;;;15.33;6.50;;;;;;;26.84;26.73;99974.78;5058426;28;20184;-68
2022/11/03 10:04:11;;;;;;;8.53;5.80;;;;;;;26.98;27.97;99970.25;5073920;28;20231;-69
2022/11/03 10:06:37;;;;;;;6.37;5.27;;;;;;;27.29;28.85;99975.06;5073410;28;20184;-71
2022/11/03 10:09:06;;;;;;;10.73;7.70;;;;;;;27.06;26.95;99964.16;5073475;28;20196;-70
2022/11/03 10:11:36;;;;;;;9.97;6.47;;;;;;;26.92;27.04;99961.34;5073849;28;20230;-70
2022/11/03 10:14:05;;;;;;;8.43;5.60;;;;;;;26.70;27.36;99958.31;5058788;28;20237;-69
2022/11/03 10:16:32;;;;;;;10.43;5.97;;;;;;;26.90;27.43;99954.56;5064459;28;20192;-69
2022/11/03 10:19:00;;;;;;;13.07;6.83;;;;;;;26.77;27.78;99947.06;5073769;28;20660;-69
2022/11/03 10:21:29;;;;;;;8.27;6.10;;;;;;;27.05;29.77;99943.44;5073578;28;20576;-69
2022/11/03 10:23:56;;;;;;;13.73;7.27;;;;;;;27.30;29.13;99949.41;5073314;28;20192;-68
2022/11/03 10:26:23;;;;;;;8.20;5.90;;;;;;;27.32;27.63;99944.44;5072032;28;20191;-68
2022/11/03 10:29:00;;;;;;;9.67;6.37;;;;;;;27.11;26.86;99931.38;5070364;28;20284;-68
2022/11/03 10:31:34;;;;;;;8.30;5.97;;;;;;;27.31;29.05;99934.66;5053131;28;20216;-69
2022/11/03 10:34:01;;;;;;;11.43;7.07;;;;;;;27.42;26.93;99927.94;5053694;28;20298;-69
2022/11/03 10:36:29;;;;;;;12.37;6.97;;;;;;;27.19;29.18;99933.44;5053601;28;20194;-70
2022/11/03 10:38:56;;;;;;;11.83;6.47;;;;;;;26.86;27.70;99928.97;5053059;28;20639;-70
2022/11/03 10:41:25;;;;;;;9.53;6.37;;;;;;;26.83;28.13;99924.09;5053022;28;20254;-72
2022/11/03 10:44:06;;;;;;;13.73;6.40;;;;;;;26.71;27.97;99915.53;5052965;28;20193;-67
2022/11/03 10:46:33;;;;;;;8.57;6.43;;;;;;;26.51;27.54;99918.44;5052658;28;20196;-70
2022/11/03 10:49:06;;;;;;;14.40;6.33;;;;;;;26.71;29.23;99899.16;5053444;28;20192;-71
2022/11/03 10:51:34;;;;;;;14.63;7.10;;;;;;;26.86;27.57;99896.25;5053268;28;20223;-68
2022/11/03 10:54:02;;;;;;;8.10;7.07;;;;;;;26.50;28.21;99900.47;5052723;28;20201;-71
2022/11/03 10:56:29;;;;;;;13.70;7.17;;;;;;;26.57;28.65;99898.19;5052563;28;20189;-68
2022/11/03 10:58:57;;;;;;;16.30;7.70;;;;;;;26.80;29.27;99897.41;5053921;28;20192;-68
2022/11/03 11:01:25;;;;;;;15.53;6.57;;;;;;;26.94;28.43;99892.84;5052919;28;20224;-72
2022/11/03 11:03:52;;;;;;;8.97;6.70;;;;;;;26.99;28.40;99887.34;5053109;28;20197;-73
2022/11/03 11:06:21;;;;;;;10.73;7.30;;;;;;;26.94;28.22;99876.47;5069127;28;20208;-68
2022/11/03 11:08:49;;;;;;;13.50;7.37;;;;;;;26.88;27.43;99889.41;5072662;28;20230;-70
2022/11/03 11:11:17;;;;;;;11.93;6.83;;;;;;;26.98;27.89;99877.53;5072090;28;20622;-67
2022/11/03 11:13:44;;;;;;;20.40;6.97;;;;;;;26.93;29.46;99870.25;5059827;28;20724;-67
2022/11/03 11:16:43;;;;;;;14.13;7.10;;;;;;;27.07;27.42;99876.56;5060709;28;20294;-66
2022/11/03 11:19:11;;;;;;;9.67;6.50;;;;;;;27.05;28.23;99861.63;5072660;28;20196;-66
2022/11/03 11:22:14;;;;;;;7.43;6.73;;;;;;;27.10;27.28;99858.81;5072623;28;20253;-66
2022/11/03 11:25:00;;;;;;;14.73;6.87;;;;;;;27.00;28.34;99858.97;5072851;28;20271;-65
2022/11/03 11:28:06;;;;;;;19.83;6.83;;;;;;;26.90;28.09;99848.22;5072045;28;20233;-65
2022/11/03 11:31:33;;;;;;;10.60;7.13;;;;;;;27.03;27.16;99847.47;5054717;28;20617;-65
2022/11/03 11:34:40;;;;;;;12.63;7.13;;;;;;;27.07;29.68;99840.31;4964215;28;20204;-67
2022/11/03 11:37:33;;;;;;;14.80;6.50;;;;;;;27.09;29.51;99841.66;5012352;28;20262;-69
2022/11/03 11:40:00;;;;;;;11.13;6.10;;;;;;;27.16;27.62;99836.59;5057427;28;20275;-68
2022/11/03 11:42:26;;;;;;;10.97;6.70;;;;;;;27.19;28.56;99830.56;5056857;28;20666;-71
2022/11/03 11:45:02;;;;;;;13.67;7.03;;;;;;;27.22;28.17;99831.94;5060068;28;20253;-69
2022/11/03 11:47:35;;;;;;;13.80;7.30;;;;;;;27.30;28.55;99825.78;5062173;28;20272;-67
2022/11/03 11:50:23;;;;;;;14.47;6.43;;;;;;;26.88;27.35;99831.31;5064059;28;20234;-67
2022/11/03 11:52:55;;;;;;;10.43;6.20;;;;;;;26.81;28.12;99817.22;5072046;28;20287;-69
2022/11/03 11:55:28;;;;;;;14.03;6.30;;;;;;;26.72;28.86;99813.53;5058693;28;20204;-67
2022/11/03 11:57:55;;;;;;;14.67;7.23;;;;;;;26.75;28.43;99826.59;5054555;28;20254;-67